sensor_id;sensor_type;location;lat;lon;timestamp;pressure;altitude;pressure_sealevel;temperature;humidity
46015;BME280;36844;51.898;-0.874;2022-07-18T00:00:04;101082.44;;;23.58;
46015;BME280;36844;51.898;-0.874;2022-07-18T00:02:51;101082.47;;;23.54;
46015;BME280;36844;51.898;-0.874;2022-07-18T00:05:37;101080.28;;;23.49;
46015;BME280;36844;51.898;-0.874;2022-07-18T00:08:22;101095.97;;;23.61;
46015;BME280;36844;51.898;-0.874;2022-07-18T00:11:08;101088.63;;;23.58;
46015;BME280;36844;51.898;-0.874;2022-07-18T00:13:53;101088.63;;;23.58;
46015;BME280;36844;51.898;-0.874;2022-07-18T00:16:39;101080.53;;;23.55;
46015;BME280;36844;51.898;-0.874;2022-07-18T00:19:25;101068.97;;;23.51;
46015;BME280;36844;51.898;-0.874;2022-07-18T00:22:12;101079.44;;;23.52;
46015;BME280;36844;51.898;-0.874;2022-07-18T00:24:57;101076.22;;;23.57;
46015;BME280;36844;51.898;-0.874;2022-07-18T00:27:43;101074.44;;;23.51;
46015;BME280;36844;51.898;-0.874;2022-07-18T00:30:28;101074.44;;;23.51;
46015;BME280;36844;51.898;-0.874;2022-07-18T00:33:14;101071.69;;;23.51;
46015;BME280;36844;51.898;-0.874;2022-07-18T00:36:00;101071.69;;;23.51;
46015;BME280;36844;51.898;-0.874;2022-07-18T00:38:46;101063.69;;;23.44;
46015;BME280;36844;51.898;-0.874;2022-07-18T00:41:31;101057.81;;;23.45;
46015;BME280;36844;51.898;-0.874;2022-07-18T00:44:23;101066.69;;;23.49;
46015;BME280;36844;51.898;-0.874;2022-07-18T00:47:09;101058.31;;;23.40;
46015;BME280;36844;51.898;-0.874;2022-07-18T00:49:55;101069.53;;;23.42;
46015;BME280;36844;51.898;-0.874;2022-07-18T00:52:40;101068.03;;;23.41;
46015;BME280;36844;51.898;-0.874;2022-07-18T00:55:26;101070.28;;;23.43;
46015;BME280;36844;51.898;-0.874;2022-07-18T00:58:12;101076.50;;;23.43;
46015;BME280;36844;51.898;-0.874;2022-07-18T01:00:58;101068.88;;;23.38;
46015;BME280;36844;51.898;-0.874;2022-07-18T01:04:03;101068.88;;;23.38;
46015;BME280;36844;51.898;-0.874;2022-07-18T01:06:50;101071.91;;;23.40;
46015;BME280;36844;51.898;-0.874;2022-07-18T01:09:36;101071.53;;;23.42;
46015;BME280;36844;51.898;-0.874;2022-07-18T01:12:22;101057.72;;;23.33;
46015;BME280;36844;51.898;-0.874;2022-07-18T01:15:07;101057.72;;;23.33;
46015;BME280;36844;51.898;-0.874;2022-07-18T01:17:54;101069.69;;;23.35;
46015;BME280;36844;51.898;-0.874;2022-07-18T01:20:39;101063.22;;;23.29;
46015;BME280;36844;51.898;-0.874;2022-07-18T01:23:25;101074.41;;;23.31;
46015;BME280;36844;51.898;-0.874;2022-07-18T01:26:15;101055.19;;;23.22;
46015;BME280;36844;51.898;-0.874;2022-07-18T01:29:01;101059.47;;;23.23;
46015;BME280;36844;51.898;-0.874;2022-07-18T01:31:47;101062.13;;;23.26;
46015;BME280;36844;51.898;-0.874;2022-07-18T01:34:32;101060.63;;;23.22;
46015;BME280;36844;51.898;-0.874;2022-07-18T01:37:18;101049.69;;;23.25;
46015;BME280;36844;51.898;-0.874;2022-07-18T01:40:09;101056.69;;;23.26;
46015;BME280;36844;51.898;-0.874;2022-07-18T01:42:55;101058.56;;;23.29;
46015;BME280;36844;51.898;-0.874;2022-07-18T01:45:40;101050.13;;;23.24;
46015;BME280;36844;51.898;-0.874;2022-07-18T01:48:26;101050.13;;;23.24;
46015;BME280;36844;51.898;-0.874;2022-07-18T01:51:12;101047.41;;;23.24;
46015;BME280;36844;51.898;-0.874;2022-07-18T01:53:57;101045.53;;;23.21;
46015;BME280;36844;51.898;-0.874;2022-07-18T01:56:47;101043.19;;;23.19;
46015;BME280;36844;51.898;-0.874;2022-07-18T01:59:33;101032.78;;;23.18;
46015;BME280;36844;51.898;-0.874;2022-07-18T02:02:19;101040.38;;;23.26;
46015;BME280;36844;51.898;-0.874;2022-07-18T02:05:05;101036.53;;;23.24;
46015;BME280;36844;51.898;-0.874;2022-07-18T02:07:51;101043.47;;;23.25;
46015;BME280;36844;51.898;-0.874;2022-07-18T02:10:36;101043.97;;;23.20;
46015;BME280;36844;51.898;-0.874;2022-07-18T02:13:23;101026.41;;;23.05;
46015;BME280;36844;51.898;-0.874;2022-07-18T02:16:08;101038.66;;;23.13;
46015;BME280;36844;51.898;-0.874;2022-07-18T02:18:55;101025.84;;;23.13;
46015;BME280;36844;51.898;-0.874;2022-07-18T02:21:40;101034.00;;;23.13;
46015;BME280;36844;51.898;-0.874;2022-07-18T02:24:27;101022.03;;;23.11;
46015;BME280;36844;51.898;-0.874;2022-07-18T02:27:12;101022.03;;;23.11;
46015;BME280;36844;51.898;-0.874;2022-07-18T02:29:58;101030.63;;;23.09;
46015;BME280;36844;51.898;-0.874;2022-07-18T02:32:44;101028.28;;;23.08;
46015;BME280;36844;51.898;-0.874;2022-07-18T02:35:29;101036.44;;;23.08;
46015;BME280;36844;51.898;-0.874;2022-07-18T02:38:15;101030.97;;;23.11;
46015;BME280;36844;51.898;-0.874;2022-07-18T02:41:01;101032.13;;;23.10;
46015;BME280;36844;51.898;-0.874;2022-07-18T02:43:47;101027.91;;;23.09;
46015;BME280;36844;51.898;-0.874;2022-07-18T02:46:32;101011.31;;;23.04;
46015;BME280;36844;51.898;-0.874;2022-07-18T02:49:18;101021.69;;;23.09;
46015;BME280;36844;51.898;-0.874;2022-07-18T02:52:13;101018.63;;;23.07;
46015;BME280;36844;51.898;-0.874;2022-07-18T02:54:58;101015.13;;;23.06;
46015;BME280;36844;51.898;-0.874;2022-07-18T02:57:46;101015.91;;;23.07;
46015;BME280;36844;51.898;-0.874;2022-07-18T03:00:32;101014.38;;;23.06;
46015;BME280;36844;51.898;-0.874;2022-07-18T03:03:18;101006.63;;;23.04;
46015;BME280;36844;51.898;-0.874;2022-07-18T03:06:04;101008.94;;;23.06;
46015;BME280;36844;51.898;-0.874;2022-07-18T03:08:49;101008.16;;;23.05;
46015;BME280;36844;51.898;-0.874;2022-07-18T03:11:35;101002.78;;;23.02;
46015;BME280;36844;51.898;-0.874;2022-07-18T03:14:21;100995.06;;;23.00;
46015;BME280;36844;51.898;-0.874;2022-07-18T03:17:06;100989.34;;;22.95;
46015;BME280;36844;51.898;-0.874;2022-07-18T03:19:52;100992.41;;;22.97;
46015;BME280;36844;51.898;-0.874;2022-07-18T03:22:38;100995.13;;;22.97;
46015;BME280;36844;51.898;-0.874;2022-07-18T03:25:24;100992.41;;;22.97;
46015;BME280;36844;51.898;-0.874;2022-07-18T03:28:10;100969.25;;;22.89;
46015;BME280;36844;51.898;-0.874;2022-07-18T03:30:55;100969.25;;;22.89;
46015;BME280;36844;51.898;-0.874;2022-07-18T03:33:44;100969.66;;;22.91;
46015;BME280;36844;51.898;-0.874;2022-07-18T03:36:30;100975.00;;;22.94;
46015;BME280;36844;51.898;-0.874;2022-07-18T03:39:15;100971.59;;;22.90;
46015;BME280;36844;51.898;-0.874;2022-07-18T03:42:01;100963.50;;;22.87;
46015;BME280;36844;51.898;-0.874;2022-07-18T03:44:46;100967.00;;;22.87;
46015;BME280;36844;51.898;-0.874;2022-07-18T03:47:32;100951.25;;;22.79;
46015;BME280;36844;51.898;-0.874;2022-07-18T03:50:18;100954.25;;;22.84;
46015;BME280;36844;51.898;-0.874;2022-07-18T03:53:04;100961.13;;;22.89;
46015;BME280;36844;51.898;-0.874;2022-07-18T03:55:49;100954.59;;;22.86;
46015;BME280;36844;51.898;-0.874;2022-07-18T03:58:35;100950.41;;;22.82;
46015;BME280;36844;51.898;-0.874;2022-07-18T04:01:21;100956.53;;;22.86;
46015;BME280;36844;51.898;-0.874;2022-07-18T04:04:07;100945.34;;;22.84;
46015;BME280;36844;51.898;-0.874;2022-07-18T04:06:52;100940.69;;;22.84;
46015;BME280;36844;51.898;-0.874;2022-07-18T04:09:38;100923.00;;;22.76;
46015;BME280;36844;51.898;-0.874;2022-07-18T04:12:24;100923.00;;;22.76;
46015;BME280;36844;51.898;-0.874;2022-07-18T04:15:09;100912.59;;;22.71;
46015;BME280;36844;51.898;-0.874;2022-07-18T04:17:55;100939.53;;;22.82;
46015;BME280;36844;51.898;-0.874;2022-07-18T04:20:41;100938.78;;;22.81;
46015;BME280;36844;51.898;-0.874;2022-07-18T04:23:26;100940.38;;;22.79;
46015;BME280;36844;51.898;-0.874;2022-07-18T04:26:12;100923.00;;;22.76;
46015;BME280;36844;51.898;-0.874;2022-07-18T04:28:58;100931.03;;;22.80;
46015;BME280;36844;51.898;-0.874;2022-07-18T04:31:43;100933.09;;;22.76;
46015;BME280;36844;51.898;-0.874;2022-07-18T04:34:29;100924.56;;;22.74;
46015;BME280;36844;51.898;-0.874;2022-07-18T04:37:15;100922.22;;;22.76;
46015;BME280;36844;51.898;-0.874;2022-07-18T04:40:01;100921.72;;;22.81;
46015;BME280;36844;51.898;-0.874;2022-07-18T04:42:47;100925.59;;;22.80;
46015;BME280;36844;51.898;-0.874;2022-07-18T04:45:34;100918.66;;;22.79;
46015;BME280;36844;51.898;-0.874;2022-07-18T04:48:19;100927.19;;;22.77;
46015;BME280;36844;51.898;-0.874;2022-07-18T04:51:05;100927.19;;;22.77;
46015;BME280;36844;51.898;-0.874;2022-07-18T04:53:51;100914.84;;;22.76;
46015;BME280;36844;51.898;-0.874;2022-07-18T04:56:36;100927.91;;;22.81;
46015;BME280;36844;51.898;-0.874;2022-07-18T04:59:22;100927.97;;;22.78;
46015;BME280;36844;51.898;-0.874;2022-07-18T05:02:08;100913.38;;;22.72;
46015;BME280;36844;51.898;-0.874;2022-07-18T05:04:54;100908.72;;;22.72;
46015;BME280;36844;51.898;-0.874;2022-07-18T05:07:40;100928.44;;;22.76;
46015;BME280;36844;51.898;-0.874;2022-07-18T05:10:26;100912.19;;;22.73;
46015;BME280;36844;51.898;-0.874;2022-07-18T05:13:12;100911.06;;;22.70;
46015;BME280;36844;51.898;-0.874;2022-07-18T05:15:57;100911.06;;;22.70;
46015;BME280;36844;51.898;-0.874;2022-07-18T05:18:43;100906.75;;;22.73;
46015;BME280;36844;51.898;-0.874;2022-07-18T05:21:28;100912.97;;;22.73;
46015;BME280;36844;51.898;-0.874;2022-07-18T05:24:16;100912.59;;;22.71;
46015;BME280;36844;51.898;-0.874;2022-07-18T05:27:01;100918.41;;;22.73;
46015;BME280;36844;51.898;-0.874;2022-07-18T05:29:47;100908.00;;;22.68;
46015;BME280;36844;51.898;-0.874;2022-07-18T05:32:32;100912.19;;;22.73;
46015;BME280;36844;51.898;-0.874;2022-07-18T05:35:18;100907.94;;;22.72;
46015;BME280;36844;51.898;-0.874;2022-07-18T05:38:04;100908.00;;;22.68;
46015;BME280;36844;51.898;-0.874;2022-07-18T05:40:50;100906.31;;;22.74;
46015;BME280;36844;51.898;-0.874;2022-07-18T05:43:35;100894.69;;;22.74;
46015;BME280;36844;51.898;-0.874;2022-07-18T05:46:21;100895.13;;;22.72;
46015;BME280;36844;51.898;-0.874;2022-07-18T05:49:06;100903.97;;;22.76;
46015;BME280;36844;51.898;-0.874;2022-07-18T05:51:52;100894.34;;;22.72;
46015;BME280;36844;51.898;-0.874;2022-07-18T05:54:38;100909.31;;;22.80;
46015;BME280;36844;51.898;-0.874;2022-07-18T05:57:23;100904.31;;;22.78;
46015;BME280;36844;51.898;-0.874;2022-07-18T06:00:10;100896.94;;;22.79;
46015;BME280;36844;51.898;-0.874;2022-07-18T06:02:56;100893.50;;;22.75;
46015;BME280;36844;51.898;-0.874;2022-07-18T06:05:42;100896.16;;;22.78;
46015;BME280;36844;51.898;-0.874;2022-07-18T06:08:28;100891.06;;;22.80;
46015;BME280;36844;51.898;-0.874;2022-07-18T06:11:13;100896.84;;;22.82;
46015;BME280;36844;51.898;-0.874;2022-07-18T06:13:59;100884.50;;;22.78;
46015;BME280;36844;51.898;-0.874;2022-07-18T06:16:44;100889.13;;;22.81;
46015;BME280;36844;51.898;-0.874;2022-07-18T06:19:30;100883.63;;;22.84;
46015;BME280;36844;51.898;-0.874;2022-07-18T06:22:16;100883.63;;;22.84;
46015;BME280;36844;51.898;-0.874;2022-07-18T06:25:01;100895.25;;;22.85;
46015;BME280;36844;51.898;-0.874;2022-07-18T06:27:48;100877.22;;;22.75;
46015;BME280;36844;51.898;-0.874;2022-07-18T06:30:33;100889.75;;;22.88;
46015;BME280;36844;51.898;-0.874;2022-07-18T06:33:19;100895.59;;;22.87;
46015;BME280;36844;51.898;-0.874;2022-07-18T06:36:05;100884.41;;;22.85;
46015;BME280;36844;51.898;-0.874;2022-07-18T06:38:51;100895.91;;;22.89;
46015;BME280;36844;51.898;-0.874;2022-07-18T06:41:38;100900.16;;;22.90;
46015;BME280;36844;51.898;-0.874;2022-07-18T06:44:24;100891.31;;;22.86;
46015;BME280;36844;51.898;-0.874;2022-07-18T06:47:10;100892.88;;;22.87;
46015;BME280;36844;51.898;-0.874;2022-07-18T06:49:56;100896.75;;;22.86;
46015;BME280;36844;51.898;-0.874;2022-07-18T06:52:43;100883.00;;;22.77;
46015;BME280;36844;51.898;-0.874;2022-07-18T06:55:29;100885.63;;;22.80;
46015;BME280;36844;51.898;-0.874;2022-07-18T06:58:15;100892.25;;;22.79;
46015;BME280;36844;51.898;-0.874;2022-07-18T07:01:02;100902.13;;;22.89;
46015;BME280;36844;51.898;-0.874;2022-07-18T07:03:47;100898.22;;;22.90;
46015;BME280;36844;51.898;-0.874;2022-07-18T07:06:33;100859.19;;;22.65;
46015;BME280;36844;51.898;-0.874;2022-07-18T07:09:19;100902.88;;;22.90;
46015;BME280;36844;51.898;-0.874;2022-07-18T07:12:04;100899.84;;;22.88;
46015;BME280;36844;51.898;-0.874;2022-07-18T07:14:50;100902.56;;;22.88;
46015;BME280;36844;51.898;-0.874;2022-07-18T07:17:36;100898.31;;;22.87;
46015;BME280;36844;51.898;-0.874;2022-07-18T07:20:22;100903.34;;;22.88;
46015;BME280;36844;51.898;-0.874;2022-07-18T07:23:07;100905.59;;;22.90;
46015;BME280;36844;51.898;-0.874;2022-07-18T07:25:54;100906.72;;;22.92;
46015;BME280;36844;51.898;-0.874;2022-07-18T07:28:40;100906.72;;;22.92;
46015;BME280;36844;51.898;-0.874;2022-07-18T07:31:25;100904.38;;;22.94;
46015;BME280;36844;51.898;-0.874;2022-07-18T07:34:11;100904.72;;;22.96;
46015;BME280;36844;51.898;-0.874;2022-07-18T07:36:56;100905.03;;;22.98;
46015;BME280;36844;51.898;-0.874;2022-07-18T07:39:42;100906.13;;;23.01;
46015;BME280;36844;51.898;-0.874;2022-07-18T07:42:27;100904.97;;;23.02;
46015;BME280;36844;51.898;-0.874;2022-07-18T07:45:14;100911.50;;;23.04;
46015;BME280;36844;51.898;-0.874;2022-07-18T07:47:59;100904.88;;;23.05;
46015;BME280;36844;51.898;-0.874;2022-07-18T07:50:45;100907.19;;;23.07;
46015;BME280;36844;51.898;-0.874;2022-07-18T07:53:31;100908.69;;;23.08;
46015;BME280;36844;51.898;-0.874;2022-07-18T07:56:16;100913.31;;;23.11;
46015;BME280;36844;51.898;-0.874;2022-07-18T07:59:04;100910.16;;;23.12;
46015;BME280;36844;51.898;-0.874;2022-07-18T08:01:49;100908.97;;;23.13;
46015;BME280;36844;51.898;-0.874;2022-07-18T08:04:35;100907.34;;;23.16;
46015;BME280;36844;51.898;-0.874;2022-07-18T08:07:21;100906.97;;;23.17;
46015;BME280;36844;51.898;-0.874;2022-07-18T08:10:06;100903.03;;;23.18;
46015;BME280;36844;51.898;-0.874;2022-07-18T08:12:52;100902.19;;;23.21;
46015;BME280;36844;51.898;-0.874;2022-07-18T08:15:38;100906.03;;;23.24;
46015;BME280;36844;51.898;-0.874;2022-07-18T08:18:24;100908.31;;;23.25;
46015;BME280;36844;51.898;-0.874;2022-07-18T08:21:09;100903.59;;;23.29;
46015;BME280;36844;51.898;-0.874;2022-07-18T08:23:55;100908.94;;;23.33;
46015;BME280;36844;51.898;-0.874;2022-07-18T08:26:40;100906.53;;;23.35;
46015;BME280;36844;51.898;-0.874;2022-07-18T08:29:26;100907.22;;;23.39;
46015;BME280;36844;51.898;-0.874;2022-07-18T08:32:12;100896.72;;;23.41;
46015;BME280;36844;51.898;-0.874;2022-07-18T08:34:58;100891.94;;;23.45;
46015;BME280;36844;51.898;-0.874;2022-07-18T08:37:44;100907.41;;;23.48;
46015;BME280;36844;51.898;-0.874;2022-07-18T08:40:30;100905.38;;;23.52;
46015;BME280;36844;51.898;-0.874;2022-07-18T08:43:15;100901.78;;;23.55;
46015;BME280;36844;51.898;-0.874;2022-07-18T08:46:02;100906.38;;;23.58;
46015;BME280;36844;51.898;-0.874;2022-07-18T08:48:48;100889.22;;;23.61;
46015;BME280;36844;51.898;-0.874;2022-07-18T08:51:34;100894.59;;;23.65;
46015;BME280;36844;51.898;-0.874;2022-07-18T08:54:20;100901.13;;;23.67;
46015;BME280;36844;51.898;-0.874;2022-07-18T08:57:05;100899.09;;;23.71;
46015;BME280;36844;51.898;-0.874;2022-07-18T08:59:51;100897.03;;;23.75;
46015;BME280;36844;51.898;-0.874;2022-07-18T09:02:37;100885.28;;;23.78;
46015;BME280;36844;51.898;-0.874;2022-07-18T09:05:22;100891.84;;;23.81;
46015;BME280;36844;51.898;-0.874;2022-07-18T09:08:09;100887.47;;;23.83;
46015;BME280;36844;51.898;-0.874;2022-07-18T09:10:56;100886.63;;;23.86;
46015;BME280;36844;51.898;-0.874;2022-07-18T09:13:42;100878.84;;;23.88;
46015;BME280;36844;51.898;-0.874;2022-07-18T09:16:28;100879.50;;;23.92;
46015;BME280;36844;51.898;-0.874;2022-07-18T09:19:15;100877.09;;;23.94;
46015;BME280;36844;51.898;-0.874;2022-07-18T09:25:16;100873.88;;;23.99;
46015;BME280;36844;51.898;-0.874;2022-07-18T09:28:04;100879.63;;;24.01;
46015;BME280;36844;51.898;-0.874;2022-07-18T09:30:54;100879.63;;;24.01;
46015;BME280;36844;51.898;-0.874;2022-07-18T09:33:40;100880.41;;;24.02;
46015;BME280;36844;51.898;-0.874;2022-07-18T09:36:36;100875.25;;;24.04;
46015;BME280;36844;51.898;-0.874;2022-07-18T09:39:38;100879.53;;;24.05;
46015;BME280;36844;51.898;-0.874;2022-07-18T09:42:24;100869.75;;;24.07;
46015;BME280;36844;51.898;-0.874;2022-07-18T09:45:10;100874.00;;;24.08;
46015;BME280;36844;51.898;-0.874;2022-07-18T09:48:03;100874.78;;;24.09;
46015;BME280;36844;51.898;-0.874;2022-07-18T09:50:56;100872.78;;;24.09;
46015;BME280;36844;51.898;-0.874;2022-07-18T09:53:44;100872.78;;;24.09;
46015;BME280;36844;51.898;-0.874;2022-07-18T09:56:30;100871.63;;;24.10;
46015;BME280;36844;51.898;-0.874;2022-07-18T09:59:18;100861.91;;;24.09;
46015;BME280;36844;51.898;-0.874;2022-07-18T10:02:04;100858.78;;;24.11;
46015;BME280;36844;51.898;-0.874;2022-07-18T10:04:50;100860.25;;;24.12;
46015;BME280;36844;51.898;-0.874;2022-07-18T10:07:35;100857.13;;;24.13;
46015;BME280;36844;51.898;-0.874;2022-07-18T10:10:21;100863.34;;;24.14;
46015;BME280;36844;51.898;-0.874;2022-07-18T10:13:10;100853.97;;;24.15;
46015;BME280;36844;51.898;-0.874;2022-07-18T10:15:56;100867.94;;;24.17;
46015;BME280;36844;51.898;-0.874;2022-07-18T10:18:41;100861.63;;;24.20;
46015;BME280;36844;51.898;-0.874;2022-07-18T10:21:27;100856.91;;;24.20;
46015;BME280;36844;51.898;-0.874;2022-07-18T10:24:18;100855.34;;;24.23;
46015;BME280;36844;51.898;-0.874;2022-07-18T10:27:11;100858.38;;;24.25;
46015;BME280;36844;51.898;-0.874;2022-07-18T10:30:06;100855.97;;;24.27;
46015;BME280;36844;51.898;-0.874;2022-07-18T10:32:52;100852.81;;;24.28;
46015;BME280;36844;51.898;-0.874;2022-07-18T10:35:58;100852.81;;;24.28;
46015;BME280;36844;51.898;-0.874;2022-07-18T10:44:34;100852.59;;;24.35;
46015;BME280;36844;51.898;-0.874;2022-07-18T10:47:27;100854.16;;;24.36;
46015;BME280;36844;51.898;-0.874;2022-07-18T10:50:13;100850.91;;;24.41;
46015;BME280;36844;51.898;-0.874;2022-07-18T10:52:59;100850.91;;;24.41;
46015;BME280;36844;51.898;-0.874;2022-07-18T10:55:46;100850.34;;;24.46;
46015;BME280;36844;51.898;-0.874;2022-07-18T10:58:32;100845.66;;;24.47;
46015;BME280;36844;51.898;-0.874;2022-07-18T11:01:24;100846.78;;;24.49;
46015;BME280;36844;51.898;-0.874;2022-07-18T11:04:23;100843.59;;;24.51;
46015;BME280;36844;51.898;-0.874;2022-07-18T11:07:14;100843.59;;;24.51;
46015;BME280;36844;51.898;-0.874;2022-07-18T11:09:59;100838.06;;;24.54;
46015;BME280;36844;51.898;-0.874;2022-07-18T11:12:45;100845.03;;;24.55;
46015;BME280;36844;51.898;-0.874;2022-07-18T11:15:50;100850.06;;;24.57;
46015;BME280;36844;51.898;-0.874;2022-07-18T11:24:10;100843.28;;;24.61;
46015;BME280;36844;51.898;-0.874;2022-07-18T11:26:59;100847.53;;;24.62;
46015;BME280;36844;51.898;-0.874;2022-07-18T11:29:49;100847.88;;;24.64;
46015;BME280;36844;51.898;-0.874;2022-07-18T11:32:35;100848.19;;;24.66;
46015;BME280;36844;51.898;-0.874;2022-07-18T11:35:21;100840.78;;;24.67;
46015;BME280;36844;51.898;-0.874;2022-07-18T11:38:07;100833.69;;;24.69;
46015;BME280;36844;51.898;-0.874;2022-07-18T11:40:53;100833.69;;;24.69;
46015;BME280;36844;51.898;-0.874;2022-07-18T11:43:38;100836.00;;;24.71;
46015;BME280;36844;51.898;-0.874;2022-07-18T11:46:25;100836.00;;;24.71;
46015;BME280;36844;51.898;-0.874;2022-07-18T11:49:10;100828.13;;;24.73;
46015;BME280;36844;51.898;-0.874;2022-07-18T11:51:56;100828.13;;;24.73;
46015;BME280;36844;51.898;-0.874;2022-07-18T11:54:42;100832.84;;;24.73;
46015;BME280;36844;51.898;-0.874;2022-07-18T11:57:28;100821.06;;;24.76;
46015;BME280;36844;51.898;-0.874;2022-07-18T12:00:15;100825.34;;;24.77;
46015;BME280;36844;51.898;-0.874;2022-07-18T12:03:08;100824.09;;;24.78;
46015;BME280;36844;51.898;-0.874;2022-07-18T12:05:54;100812.00;;;24.79;
46015;BME280;36844;51.898;-0.874;2022-07-18T12:08:41;100810.06;;;24.79;
46015;BME280;36844;51.898;-0.874;2022-07-18T12:11:28;100810.06;;;24.79;
46015;BME280;36844;51.898;-0.874;2022-07-18T12:14:15;100812.31;;;24.81;
46015;BME280;36844;51.898;-0.874;2022-07-18T12:17:01;100804.50;;;24.83;
46015;BME280;36844;51.898;-0.874;2022-07-18T12:19:46;100796.31;;;24.83;
46015;BME280;36844;51.898;-0.874;2022-07-18T12:22:32;100801.78;;;24.83;
46015;BME280;36844;51.898;-0.874;2022-07-18T12:25:17;100797.84;;;24.84;
46015;BME280;36844;51.898;-0.874;2022-07-18T12:28:16;100793.91;;;24.85;
46015;BME280;36844;51.898;-0.874;2022-07-18T12:31:02;100800.13;;;24.85;
46015;BME280;36844;51.898;-0.874;2022-07-18T12:34:06;100805.13;;;24.87;
46015;BME280;36844;51.898;-0.874;2022-07-18T12:36:53;100800.47;;;24.87;
46015;BME280;36844;51.898;-0.874;2022-07-18T12:39:39;100796.97;;;24.87;
46015;BME280;36844;51.898;-0.874;2022-07-18T12:42:29;100791.81;;;24.89;
46015;BME280;36844;51.898;-0.874;2022-07-18T12:45:16;100791.81;;;24.89;
46015;BME280;36844;51.898;-0.874;2022-07-18T12:48:02;100787.91;;;24.90;
46015;BME280;36844;51.898;-0.874;2022-07-18T12:51:00;100777.00;;;24.90;
46015;BME280;36844;51.898;-0.874;2022-07-18T12:53:47;100789.44;;;24.91;
46015;BME280;36844;51.898;-0.874;2022-07-18T12:56:33;100776.59;;;24.91;
46015;BME280;36844;51.898;-0.874;2022-07-18T12:59:18;100774.59;;;24.92;
46015;BME280;36844;51.898;-0.874;2022-07-18T13:02:04;100770.66;;;24.93;
46015;BME280;36844;51.898;-0.874;2022-07-18T13:04:49;100766.09;;;24.90;
46015;BME280;36844;51.898;-0.874;2022-07-18T13:07:35;100766.75;;;24.94;
46015;BME280;36844;51.898;-0.874;2022-07-18T13:10:21;100761.31;;;24.94;
46015;BME280;36844;51.898;-0.874;2022-07-18T13:13:07;100762.81;;;24.95;
46015;BME280;36844;51.898;-0.874;2022-07-18T13:15:53;100761.63;;;24.96;
46015;BME280;36844;51.898;-0.874;2022-07-18T13:18:39;100748.75;;;24.96;
46015;BME280;36844;51.898;-0.874;2022-07-18T13:21:24;100744.81;;;24.97;
46015;BME280;36844;51.898;-0.874;2022-07-18T13:24:10;100744.81;;;24.97;
46015;BME280;36844;51.898;-0.874;2022-07-18T13:26:56;100744.41;;;24.99;
46015;BME280;36844;51.898;-0.874;2022-07-18T13:29:42;100742.44;;;24.99;
46015;BME280;36844;51.898;-0.874;2022-07-18T13:32:27;100731.84;;;25.01;
46015;BME280;36844;51.898;-0.874;2022-07-18T13:35:13;100732.63;;;25.02;
46015;BME280;36844;51.898;-0.874;2022-07-18T13:37:59;100731.41;;;25.03;
46015;BME280;36844;51.898;-0.874;2022-07-18T13:40:44;100727.47;;;25.04;
46015;BME280;36844;51.898;-0.874;2022-07-18T13:43:30;100729.75;;;25.05;
46015;BME280;36844;51.898;-0.874;2022-07-18T13:46:15;100729.75;;;25.05;
46015;BME280;36844;51.898;-0.874;2022-07-18T13:49:03;100721.16;;;25.07;
46015;BME280;36844;51.898;-0.874;2022-07-18T13:51:48;100717.94;;;25.08;
46015;BME280;36844;51.898;-0.874;2022-07-18T13:54:34;100717.94;;;25.08;
46015;BME280;36844;51.898;-0.874;2022-07-18T13:57:20;100714.03;;;25.09;
46015;BME280;36844;51.898;-0.874;2022-07-18T14:00:06;100710.13;;;25.10;
46015;BME280;36844;51.898;-0.874;2022-07-18T14:02:53;100708.16;;;25.11;
46015;BME280;36844;51.898;-0.874;2022-07-18T14:05:39;100710.41;;;25.12;
46015;BME280;36844;51.898;-0.874;2022-07-18T14:08:24;100703.00;;;25.13;
46015;BME280;36844;51.898;-0.874;2022-07-18T14:11:10;100704.53;;;25.14;
46015;BME280;36844;51.898;-0.874;2022-07-18T14:13:56;100695.16;;;25.15;
46015;BME280;36844;51.898;-0.874;2022-07-18T14:16:41;100701.34;;;25.15;
46015;BME280;36844;51.898;-0.874;2022-07-18T14:19:27;100691.22;;;25.16;
46015;BME280;36844;51.898;-0.874;2022-07-18T14:22:12;100694.69;;;25.16;
46015;BME280;36844;51.898;-0.874;2022-07-18T14:24:58;100696.53;;;25.19;
46015;BME280;36844;51.898;-0.874;2022-07-18T14:27:44;100697.28;;;25.20;
46015;BME280;36844;51.898;-0.874;2022-07-18T14:30:30;100693.38;;;25.21;
46015;BME280;36844;51.898;-0.874;2022-07-18T14:33:15;100694.91;;;25.22;
46015;BME280;36844;51.898;-0.874;2022-07-18T14:36:01;100692.94;;;25.22;
46015;BME280;36844;51.898;-0.874;2022-07-18T14:38:46;100692.94;;;25.22;
46015;BME280;36844;51.898;-0.874;2022-07-18T14:41:32;100690.94;;;25.23;
46015;BME280;36844;51.898;-0.874;2022-07-18T14:44:18;100686.75;;;25.22;
46015;BME280;36844;51.898;-0.874;2022-07-18T14:47:03;100684.75;;;25.22;
46015;BME280;36844;51.898;-0.874;2022-07-18T14:49:49;100686.75;;;25.22;
46015;BME280;36844;51.898;-0.874;2022-07-18T14:52:35;100685.50;;;25.23;
46015;BME280;36844;51.898;-0.874;2022-07-18T14:55:21;100684.03;;;25.22;
46015;BME280;36844;51.898;-0.874;2022-07-18T14:58:07;100682.47;;;25.21;
46015;BME280;36844;51.898;-0.874;2022-07-18T15:00:53;100669.25;;;25.19;
46015;BME280;36844;51.898;-0.874;2022-07-18T15:03:39;100678.97;;;25.20;
46015;BME280;36844;51.898;-0.874;2022-07-18T15:06:25;100677.44;;;25.19;
46015;BME280;36844;51.898;-0.874;2022-07-18T15:09:10;100674.72;;;25.19;
46015;BME280;36844;51.898;-0.874;2022-07-18T15:11:56;100668.19;;;25.17;
46015;BME280;36844;51.898;-0.874;2022-07-18T15:14:41;100660.78;;;25.17;
46015;BME280;36844;51.898;-0.874;2022-07-18T15:17:27;100668.97;;;25.17;
46015;BME280;36844;51.898;-0.874;2022-07-18T15:20:13;100671.28;;;25.19;
46015;BME280;36844;51.898;-0.874;2022-07-18T15:22:58;100660.00;;;25.17;
46015;BME280;36844;51.898;-0.874;2022-07-18T15:25:44;100656.88;;;25.18;
46015;BME280;36844;51.898;-0.874;2022-07-18T15:28:30;100658.34;;;25.19;
46015;BME280;36844;51.898;-0.874;2022-07-18T15:31:15;100651.41;;;25.18;